Time;durP1;ratioP1;P1;durP2;ratioP2;P2;SDS_P1;SDS_P2;PMS_P1;PMS_P2;Temp;Humidity;BMP_temperature;BMP_pressure;BME280_temperature;BME280_humidity;BME280_pressure;Samples;Min_cycle;Max_cycle;Signal;HPM_P1;HPM_P2
2022/09/26 00:01:06;;;;;;;280.98;22.23;;;;;;;18.92;72.19;97367.06;4454499;32;20097;-81
2022/09/26 00:03:34;;;;;;;254.85;21.27;;;;;;;18.39;75.98;97374.25;4454711;32;20098;-81
2022/09/26 00:06:02;;;;;;;306.77;23.73;;;;;;;19.39;71.64;97363.84;4454670;32;20416;-81
2022/09/26 00:08:29;;;;;;;304.80;23.15;;;;;;;19.48;70.75;97363.84;4454485;32;20086;-81
2022/09/26 00:10:58;;;;;;;282.95;22.35;;;;;;;20.37;66.97;97358.34;4440861;32;20078;-81
2022/09/26 00:13:26;;;;;;;306.92;24.70;;;;;;;20.26;67.45;97354.13;4454513;32;20207;-81
2022/09/26 00:15:54;;;;;;;192.27;18.27;;;;;;;20.35;67.04;97355.06;4454311;32;20081;-81
2022/09/26 00:18:22;;;;;;;201.27;19.37;;;;;;;20.50;66.50;97345.78;4454744;32;20150;-81
2022/09/26 00:20:49;;;;;;;136.82;16.65;;;;;;;20.27;66.32;97333.97;4454261;32;20459;-81
2022/09/26 00:23:16;;;;;;;123.30;17.42;;;;;;;19.53;68.93;97330.25;4455553;32;20089;-81
2022/09/26 00:25:47;;;;;;;132.90;17.77;;;;;;;18.31;74.86;97327.09;4456742;32;20115;-81
2022/09/26 00:28:14;;;;;;;248.30;22.42;;;;;;;18.07;75.75;97332.59;4456580;32;20139;-81
2022/09/26 00:30:41;;;;;;;209.18;20.62;;;;;;;17.59;78.53;97336.53;4456911;32;20085;-81
2022/09/26 00:33:08;;;;;;;105.47;18.55;;;;;;;18.77;73.38;97332.66;4456701;32;20093;-81
2022/09/26 00:35:35;;;;;;;199.30;20.58;;;;;;;19.49;70.51;97335.91;4456431;32;20111;-81
2022/09/26 00:38:02;;;;;;;281.55;22.35;;;;;;;20.01;68.12;97336.41;4456910;32;20146;-81
2022/09/26 00:40:29;;;;;;;204.35;22.62;;;;;;;19.61;69.29;97337.44;4456836;32;20099;-81
2022/09/26 00:42:57;;;;;;;183.37;20.55;;;;;;;19.98;68.19;97337.50;4456398;32;20150;-81
2022/09/26 00:45:29;;;;;;;105.18;17.37;;;;;;;20.38;66.65;97325.94;4456569;32;20110;-81
2022/09/26 00:48:02;;;;;;;145.55;17.83;;;;;;;20.62;65.36;97323.66;4443076;32;20761;-81
2022/09/26 00:50:38;;;;;;;116.70;16.65;;;;;;;20.80;64.86;97329.78;4456621;32;20549;-81
2022/09/26 00:53:09;;;;;;;149.27;17.98;;;;;;;21.03;63.77;97324.09;4442960;32;20105;-81
2022/09/26 00:55:40;;;;;;;168.23;17.67;;;;;;;21.19;62.43;97331.34;4456669;32;20437;-81
2022/09/26 00:58:13;;;;;;;120.80;15.25;;;;;;;21.07;63.35;97334.16;4442605;32;20094;-81
2022/09/26 01:00:41;;;;;;;95.22;14.95;;;;;;;21.76;59.86;97334.47;4456750;32;20117;-81
2022/09/26 01:03:08;;;;;;;102.45;15.13;;;;;;;21.19;61.93;97328.72;4456202;32;20452;-81
2022/09/26 01:05:36;;;;;;;117.47;15.88;;;;;;;21.18;61.89;97332.31;4456591;32;20097;-81
2022/09/26 01:08:03;;;;;;;96.82;15.75;;;;;;;20.75;63.19;97328.56;4442879;32;20107;-81
2022/09/26 01:10:31;;;;;;;82.05;15.10;;;;;;;21.13;62.17;97326.66;4442271;32;20085;-81
2022/09/26 01:12:59;;;;;;;66.95;14.18;;;;;;;20.77;63.31;97321.38;4442486;32;20435;-81
2022/09/26 01:15:26;;;;;;;46.08;13.07;;;;;;;21.25;61.58;97325.47;4442513;32;20123;-81
2022/09/26 01:17:53;;;;;;;49.67;13.52;;;;;;;20.55;63.54;97317.34;4456281;32;20089;-81
2022/09/26 01:20:46;;;;;;;26.83;12.82;;;;;;;20.51;64.67;97318.59;4456587;32;20081;-81
2022/09/26 01:23:36;;;;;;;23.08;13.05;;;;;;;20.43;65.11;97310.66;4433626;32;20146;-81
2022/09/26 01:26:27;;;;;;;22.70;12.98;;;;;;;20.50;64.71;97314.34;4429624;32;20154;-81
2022/09/26 01:29:28;;;;;;;37.65;14.15;;;;;;;20.78;64.29;97323.84;4442761;32;20107;-81
2022/09/26 01:35:30;;;;;;;48.67;14.85;;;;;;;21.00;62.65;97348.00;4443231;32;20109;-81
2022/09/26 01:38:13;;;;;;;129.48;16.62;;;;;;;20.75;63.78;97336.44;4456158;32;20093;-81
2022/09/26 01:40:43;;;;;;;188.73;18.02;;;;;;;19.62;67.97;97324.22;4456485;32;20424;-81
2022/09/26 01:43:13;;;;;;;100.10;17.27;;;;;;;20.05;67.01;97328.13;4456288;32;20077;-81
2022/09/26 01:45:52;;;;;;;171.98;19.87;;;;;;;20.25;65.83;97328.06;4455843;32;20116;-81
2022/09/26 01:48:30;;;;;;;198.82;19.20;;;;;;;20.51;64.90;97332.53;4442456;32;20576;-81
2022/09/26 01:51:03;;;;;;;127.68;19.15;;;;;;;20.13;66.30;97330.88;4456386;32;20805;-81
2022/09/26 01:53:29;;;;;;;79.87;15.95;;;;;;;20.10;66.35;97314.62;4441917;32;20085;-81
2022/09/26 01:56:03;;;;;;;49.60;14.43;;;;;;;19.99;66.75;97322.62;4456118;32;20089;-81
2022/09/26 01:58:37;;;;;;;25.30;13.90;;;;;;;20.77;63.98;97296.00;4442383;32;20162;-81
2022/09/26 02:01:09;;;;;;;21.73;12.57;;;;;;;20.15;66.23;97287.00;4442095;32;20387;-81
2022/09/26 02:03:40;;;;;;;20.08;12.10;;;;;;;19.88;67.77;97292.19;4442572;32;20460;-81
2022/09/26 02:06:11;;;;;;;20.50;12.30;;;;;;;20.19;66.32;97292.78;4456008;32;20100;-81
2022/09/26 02:08:44;;;;;;;20.70;11.98;;;;;;;19.79;68.27;97296.50;4456503;32;20092;-81
2022/09/26 02:11:16;;;;;;;19.80;11.52;;;;;;;20.17;67.10;97289.50;4442615;32;20112;-81
2022/09/26 02:14:02;;;;;;;20.30;10.88;;;;;;;21.56;61.53;97297.06;4455853;32;20108;-81
2022/09/26 02:16:39;;;;;;;18.95;10.90;;;;;;;21.35;62.42;97298.22;4443104;32;20237;-81
2022/09/26 02:19:18;;;;;;;19.55;11.07;;;;;;;21.11;63.12;97286.66;4442867;32;20104;-81
2022/09/26 02:21:46;;;;;;;19.10;10.98;;;;;;;20.97;63.91;97283.59;4456197;32;20450;-81
2022/09/26 02:24:13;;;;;;;20.05;10.88;;;;;;;20.96;63.97;97275.88;4442218;32;20082;-81
2022/09/26 02:26:41;;;;;;;22.13;11.75;;;;;;;20.77;64.81;97274.19;4443526;32;20097;-82
2022/09/26 02:29:09;;;;;;;19.60;11.25;;;;;;;20.92;64.14;97280.56;4456214;32;20111;-82
2022/09/26 02:31:40;;;;;;;20.30;11.35;;;;;;;20.85;64.20;97266.41;4456086;32;20392;-81
2022/09/26 02:34:07;;;;;;;17.87;10.55;;;;;;;21.27;63.26;97271.09;4438868;32;20101;-81
2022/09/26 02:36:35;;;;;;;19.48;11.85;;;;;;;21.32;62.83;97266.22;4439373;32;20101;-81
2022/09/26 02:39:02;;;;;;;20.65;11.88;;;;;;;21.67;61.76;97266.16;4440564;32;20089;-82
2022/09/26 02:42:16;;;;;;;20.23;12.02;;;;;;;20.93;63.15;97260.41;4440327;32;20089;-82
2022/09/26 02:44:45;;;;;;;23.77;12.77;;;;;;;21.44;62.19;97264.19;4414804;32;20081;-82
2022/09/26 02:47:18;;;;;;;23.10;13.13;;;;;;;21.88;59.96;97260.53;4440117;32;20106;-82
2022/09/26 02:50:12;;;;;;;29.23;13.40;;;;;;;21.12;62.46;97246.34;4440528;32;20098;-81
2022/09/26 02:53:07;;;;;;;97.28;15.38;;;;;;;20.01;66.20;97235.13;4440896;32;20093;-82
2022/09/26 02:55:52;;;;;;;89.00;14.98;;;;;;;19.15;70.40;97231.72;4440443;32;20432;-82
2022/09/26 02:58:44;;;;;;;106.03;15.85;;;;;;;19.85;67.69;97233.09;4440433;32;20182;-81
2022/09/26 03:01:24;;;;;;;30.30;13.80;;;;;;;19.58;68.73;97227.81;4440483;32;20093;-81
2022/09/26 03:04:17;;;;;;;22.25;12.75;;;;;;;19.93;67.79;97235.00;4425933;32;20111;-81
2022/09/26 03:06:46;;;;;;;22.52;12.98;;;;;;;20.29;66.25;97229.88;4439172;32;20148;-81
2022/09/26 03:09:13;;;;;;;22.27;12.55;;;;;;;20.38;66.09;97221.97;4439851;32;20093;-81
2022/09/26 03:11:42;;;;;;;20.73;12.75;;;;;;;21.23;62.72;97233.81;4439038;32;20511;-81
2022/09/26 03:14:09;;;;;;;21.00;12.88;;;;;;;21.54;61.23;97231.59;4439966;32;20107;-81
2022/09/26 03:16:39;;;;;;;18.15;10.50;;;;;;;21.20;62.67;97226.25;4439803;32;20592;-81
2022/09/26 03:19:13;;;;;;;16.70;10.02;;;;;;;21.72;60.50;97228.13;4440193;32;20154;-81
2022/09/26 03:21:40;;;;;;;17.83;8.77;;;;;;;22.03;59.30;97221.41;4439347;32;20141;-81
2022/09/26 03:24:08;;;;;;;16.75;8.60;;;;;;;21.97;59.39;97215.94;4439531;32;20104;-81
2022/09/26 03:26:35;;;;;;;13.93;7.72;;;;;;;21.19;61.94;97221.16;4439944;32;20081;-81
2022/09/26 03:29:02;;;;;;;15.27;8.40;;;;;;;21.41;61.69;97219.87;4438698;32;20106;-81
2022/09/26 03:31:30;;;;;;;14.77;8.40;;;;;;;21.55;61.01;97217.50;4439592;32;20108;-81
2022/09/26 03:33:57;;;;;;;16.52;8.73;;;;;;;21.80;60.38;97215.00;4444386;32;20447;-81
2022/09/26 03:36:24;;;;;;;16.00;8.88;;;;;;;21.30;62.14;97213.06;4455286;32;20089;-81
2022/09/26 03:38:51;;;;;;;21.77;11.70;;;;;;;20.53;65.12;97197.94;4454886;32;20510;-81
2022/09/26 03:41:18;;;;;;;21.23;12.48;;;;;;;19.10;70.48;97191.25;4455225;32;20092;-81
2022/09/26 03:43:45;;;;;;;19.25;11.90;;;;;;;18.94;72.60;97192.62;4454989;32;20103;-81
2022/09/26 03:46:12;;;;;;;17.70;10.10;;;;;;;18.54;73.95;97199.75;4447840;32;221326;-81
2022/09/26 03:48:39;;;;;;;16.73;9.68;;;;;;;18.43;74.91;97198.06;4441136;32;20113;-81
2022/09/26 03:51:08;;;;;;;17.08;9.95;;;;;;;19.08;73.17;97199.22;4455123;32;20128;-81
2022/09/26 03:53:37;;;;;;;16.58;9.00;;;;;;;19.78;69.79;97207.62;4454431;32;20463;-82
2022/09/26 03:56:07;;;;;;;15.30;9.10;;;;;;;19.53;70.19;97203.81;4454904;32;20217;-82
2022/09/26 03:58:34;;;;;;;16.98;9.55;;;;;;;20.34;67.41;97207.53;4441986;32;20534;-81
2022/09/26 04:01:06;;;;;;;14.13;8.10;;;;;;;20.35;67.23;97195.25;4443256;32;20105;-81
2022/09/26 04:03:35;;;;;;;14.52;8.25;;;;;;;20.40;66.91;97196.44;4457058;32;20107;-81
2022/09/26 04:06:03;;;;;;;16.50;7.93;;;;;;;20.98;64.72;97210.97;4456663;32;20407;-81
2022/09/26 04:08:30;;;;;;;15.05;8.52;;;;;;;21.50;62.38;97206.66;4457219;32;20105;-81
2022/09/26 04:11:02;;;;;;;13.25;7.60;;;;;;;21.21;63.70;97206.09;4457009;32;20232;-81
2022/09/26 04:13:29;;;;;;;13.95;7.10;;;;;;;21.41;62.67;97207.56;4456607;32;20099;-81
2022/09/26 04:16:18;;;;;;;11.98;6.65;;;;;;;21.14;64.09;97210.28;4456916;32;20085;-81
2022/09/26 04:18:46;;;;;;;12.40;6.95;;;;;;;20.73;65.73;97205.50;4443026;32;20097;-80
2022/09/26 04:21:14;;;;;;;13.07;6.85;;;;;;;20.57;66.85;97204.53;4456669;32;20102;-81
2022/09/26 04:23:42;;;;;;;12.45;6.47;;;;;;;20.55;67.49;97202.06;4456855;32;20085;-80
2022/09/26 04:26:14;;;;;;;12.90;6.00;;;;;;;20.25;68.55;97216.25;4456864;32;20134;-81
2022/09/26 04:28:49;;;;;;;13.45;6.65;;;;;;;20.12;69.45;97221.03;4457028;32;20101;-81
2022/09/26 04:31:17;;;;;;;11.90;6.15;;;;;;;19.75;71.23;97218.37;4457000;32;20178;-81
2022/09/26 04:33:44;;;;;;;19.50;7.50;;;;;;;19.47;72.48;97209.63;4456346;32;20097;-80
2022/09/26 04:36:12;;;;;;;13.75;7.20;;;;;;;19.15;74.02;97228.28;4457084;32;20077;-81
2022/09/26 04:38:39;;;;;;;16.58;8.10;;;;;;;19.01;74.98;97245.19;4456834;32;20106;-81
2022/09/26 04:41:26;;;;;;;14.98;7.07;;;;;;;19.17;75.27;97235.00;4442532;32;20121;-80
2022/09/26 04:43:54;;;;;;;14.32;7.62;;;;;;;19.12;74.26;97242.41;4442725;32;20089;-80
2022/09/26 04:46:23;;;;;;;14.40;8.32;;;;;;;19.23;73.86;97252.75;4456772;32;20732;-80
2022/09/26 04:48:58;;;;;;;15.00;7.65;;;;;;;19.77;71.25;97237.38;4456555;32;20093;-80
2022/09/26 04:51:26;;;;;;;14.77;8.48;;;;;;;19.25;73.88;97216.00;4456779;32;20361;-81
2022/09/26 04:53:54;;;;;;;17.02;9.02;;;;;;;19.54;72.71;97214.16;4456521;32;20146;-81
2022/09/26 04:56:22;;;;;;;16.17;8.77;;;;;;;19.93;71.23;97219.31;4456377;32;20096;-81
2022/09/26 04:58:49;;;;;;;15.93;8.68;;;;;;;20.60;68.67;97228.63;4456717;32;20112;-81
2022/09/26 05:01:18;;;;;;;14.73;7.53;;;;;;;21.27;65.08;97240.44;4456765;32;20085;-81
2022/09/26 05:03:45;;;;;;;13.60;7.25;;;;;;;21.61;63.04;97232.66;4456166;32;20111;-81
2022/09/26 05:06:13;;;;;;;14.93;7.82;;;;;;;21.55;63.30;97237.69;4456694;32;20081;-81
2022/09/26 05:08:41;;;;;;;14.45;7.20;;;;;;;21.59;63.42;97229.38;4442087;32;20163;-81
2022/09/26 05:11:08;;;;;;;13.52;7.30;;;;;;;21.38;63.84;97242.00;4456687;32;20085;-80
2022/09/26 05:13:37;;;;;;;13.52;6.70;;;;;;;20.83;66.30;97249.16;4442569;32;20436;-80
2022/09/26 05:16:07;;;;;;;13.30;6.97;;;;;;;20.62;67.20;97234.53;4442178;32;20147;-80
2022/09/26 05:18:35;;;;;;;12.75;6.60;;;;;;;20.81;66.60;97223.09;4456707;32;20448;-81
2022/09/26 05:21:04;;;;;;;13.32;6.05;;;;;;;20.35;67.81;97224.06;4456588;32;20112;-81
2022/09/26 05:26:31;;;;;;;13.15;6.93;;;;;;;19.43;72.30;97229.19;4456612;32;20508;-81
2022/09/26 05:29:03;;;;;;;14.77;6.70;;;;;;;19.29;73.03;97212.13;4456553;32;20116;-81
2022/09/26 05:31:42;;;;;;;12.73;6.25;;;;;;;19.20;73.72;97220.81;4456312;32;20160;-81
2022/09/26 05:34:11;;;;;;;11.68;6.10;;;;;;;19.19;73.54;97229.63;4439434;32;20085;-80
2022/09/26 05:36:44;;;;;;;12.90;6.50;;;;;;;19.01;74.43;97219.03;4440809;32;20157;-80
2022/09/26 05:41:58;;;;;;;11.68;6.07;;;;;;;19.18;73.80;97223.56;4441302;32;20143;-80
2022/09/26 05:44:26;;;;;;;12.65;6.50;;;;;;;18.91;74.93;97218.22;4440639;32;20088;-80
2022/09/26 05:46:56;;;;;;;12.43;6.55;;;;;;;19.21;73.58;97212.00;4441348;32;20073;-80
2022/09/26 05:49:23;;;;;;;12.30;6.35;;;;;;;18.95;74.92;97219.59;4440949;32;20452;-80
2022/09/26 05:51:52;;;;;;;13.38;6.43;;;;;;;19.18;74.26;97217.53;4440593;32;20127;-80
2022/09/26 05:54:19;;;;;;;12.18;6.65;;;;;;;19.30;73.69;97204.16;4440573;32;20419;-80
2022/09/26 05:56:47;;;;;;;12.75;6.47;;;;;;;19.24;74.44;97199.47;4439804;32;20073;-81
2022/09/26 05:59:14;;;;;;;13.27;6.43;;;;;;;19.18;73.07;97199.22;4439885;32;20124;-80
2022/09/26 06:01:41;;;;;;;12.88;6.25;;;;;;;19.75;71.71;97207.94;4453365;32;20579;-81
2022/09/26 06:04:09;;;;;;;12.65;6.70;;;;;;;19.60;71.67;97215.41;4455935;32;20103;-81
2022/09/26 06:06:36;;;;;;;11.93;6.18;;;;;;;19.60;70.58;97212.81;4456221;32;20153;-81
2022/09/26 06:09:03;;;;;;;11.77;6.25;;;;;;;19.48;71.54;97196.41;4455978;32;20116;-79
2022/09/26 06:11:29;;;;;;;11.60;6.45;;;;;;;19.76;71.42;97206.94;4456504;32;20369;-81
2022/09/26 06:13:59;;;;;;;13.57;6.72;;;;;;;20.52;68.16;97207.56;4455705;32;20440;-78
2022/09/26 06:16:27;;;;;;;12.25;6.47;;;;;;;19.83;71.09;97200.19;4456453;32;20444;-79
2022/09/26 06:18:57;;;;;;;13.10;6.40;;;;;;;20.00;70.68;97209.91;4455671;32;20125;-80
2022/09/26 06:21:24;;;;;;;12.70;6.50;;;;;;;20.92;68.27;97216.81;4455400;32;20105;-80
2022/09/26 06:24:39;;;;;;;12.15;6.72;;;;;;;20.84;67.88;97222.81;4455914;32;20085;-80
2022/09/26 06:27:06;;;;;;;12.60;6.60;;;;;;;20.87;67.91;97224.31;4455807;32;20100;-80
2022/09/26 06:29:33;;;;;;;12.60;6.90;;;;;;;21.52;66.20;97222.25;4456160;32;20568;-80
2022/09/26 06:32:00;;;;;;;11.70;6.50;;;;;;;21.86;64.50;97217.84;4456101;32;20112;-81
2022/09/26 06:34:27;;;;;;;11.55;6.28;;;;;;;21.95;62.27;97219.53;4462027;32;20080;-80
2022/09/26 06:36:54;;;;;;;11.68;6.65;;;;;;;22.16;61.71;97216.56;4471481;32;20146;-80
2022/09/26 06:39:21;;;;;;;11.68;6.32;;;;;;;22.27;59.48;97227.75;4471516;32;20100;-79
2022/09/26 06:41:50;;;;;;;11.98;6.22;;;;;;;21.87;60.75;97229.19;4471287;32;20085;-80
2022/09/26 06:44:17;;;;;;;12.48;6.43;;;;;;;21.19;63.77;97242.13;4471402;32;20103;-80
2022/09/26 06:46:44;;;;;;;14.38;7.35;;;;;;;21.30;63.70;97241.94;4471279;32;20084;-80
2022/09/26 06:49:11;;;;;;;15.57;7.30;;;;;;;20.61;66.60;97232.91;4471468;32;20096;-80
2022/09/26 06:51:38;;;;;;;12.80;7.12;;;;;;;19.13;72.54;97232.78;4471567;32;20096;-80
2022/09/26 06:54:05;;;;;;;14.02;7.57;;;;;;;20.14;68.63;97237.41;4456949;32;20092;-79
2022/09/26 06:56:32;;;;;;;13.77;7.50;;;;;;;19.52;71.26;97238.81;4471356;32;20080;-79
2022/09/26 06:58:59;;;;;;;13.75;7.78;;;;;;;19.69;69.77;97239.91;4471401;32;20428;-79
2022/09/26 07:01:26;;;;;;;14.20;7.70;;;;;;;19.71;71.14;97238.81;4471080;32;20097;-80
2022/09/26 07:03:53;;;;;;;15.85;8.48;;;;;;;19.40;71.99;97234.69;4471502;32;20119;-80
2022/09/26 07:06:20;;;;;;;14.57;7.80;;;;;;;20.07;70.08;97236.31;4471749;32;20103;-80
2022/09/26 07:08:47;;;;;;;14.38;8.00;;;;;;;20.95;66.22;97250.63;4472692;32;20107;-80
2022/09/26 07:11:29;;;;;;;15.95;8.07;;;;;;;21.02;65.76;97246.41;4472992;32;20154;-80
2022/09/26 07:14:16;;;;;;;14.75;8.27;;;;;;;20.19;70.48;97243.03;4472740;32;20092;-80
2022/09/26 07:16:43;;;;;;;14.60;8.27;;;;;;;20.55;68.01;97243.97;4473018;32;20064;-80
2022/09/26 07:19:11;;;;;;;13.77;7.85;;;;;;;19.95;70.41;97256.63;4460836;32;20170;-81
2022/09/26 07:21:38;;;;;;;15.07;8.27;;;;;;;21.12;65.07;97267.31;4473349;32;20108;-78
2022/09/26 07:24:06;;;;;;;13.88;8.20;;;;;;;20.59;67.52;97257.59;4474131;32;20114;-78
2022/09/26 07:26:34;;;;;;;15.93;8.70;;;;;;;20.33;67.65;97260.91;4473810;32;20438;-77
2022/09/26 07:29:01;;;;;;;16.52;8.93;;;;;;;20.07;68.36;97259.88;4470754;32;20158;-80
2022/09/26 07:31:28;;;;;;;16.25;9.07;;;;;;;19.30;72.15;97261.69;4471311;32;20107;-78
2022/09/26 07:33:55;;;;;;;18.00;9.57;;;;;;;20.51;66.52;97264.41;4472862;32;20156;-77
2022/09/26 07:36:22;;;;;;;15.85;8.63;;;;;;;20.56;65.61;97271.84;4472623;32;20076;-79
2022/09/26 07:38:49;;;;;;;18.48;10.00;;;;;;;19.30;70.34;97268.72;4472796;32;20111;-79
2022/09/26 07:41:16;;;;;;;15.65;8.90;;;;;;;19.73;69.29;97270.88;4473150;32;20506;-79
2022/09/26 07:43:43;;;;;;;17.05;10.48;;;;;;;18.84;72.34;97266.78;4475323;32;20061;-79
2022/09/26 07:52:01;;;;;;;15.73;9.20;;;;;;;21.43;63.47;97263.34;4474007;32;20115;-79
2022/09/26 07:54:28;;;;;;;16.02;9.65;;;;;;;21.99;62.47;97266.50;4472576;32;20085;-79
2022/09/26 07:56:55;;;;;;;17.52;8.73;;;;;;;22.56;60.42;97267.63;4472359;32;20549;-79
2022/09/26 07:59:22;;;;;;;14.52;8.77;;;;;;;22.63;58.09;97260.72;4472821;32;20430;-79
2022/09/26 08:01:51;;;;;;;17.35;9.02;;;;;;;22.88;56.75;97260.84;4482960;32;20118;-79
2022/09/26 08:04:22;;;;;;;14.25;8.60;;;;;;;22.78;57.87;97267.03;4485321;32;20100;-80
2022/09/26 08:06:49;;;;;;;16.15;8.95;;;;;;;22.57;59.19;97271.09;4482676;32;20080;-80
2022/09/26 08:09:16;;;;;;;15.27;9.38;;;;;;;22.17;59.61;97264.66;4484324;32;20093;-80
2022/09/26 08:11:43;;;;;;;17.17;10.18;;;;;;;22.09;59.20;97264.63;4475514;32;20096;-79
2022/09/26 08:14:10;;;;;;;15.35;8.60;;;;;;;22.78;57.10;97264.41;4472461;32;20093;-78
2022/09/26 08:16:40;;;;;;;14.95;9.07;;;;;;;21.80;59.64;97273.63;4474865;32;20099;-79
2022/09/26 08:19:09;;;;;;;16.20;9.75;;;;;;;21.44;61.89;97272.03;4474052;32;20096;-79
2022/09/26 08:21:36;;;;;;;15.88;9.98;;;;;;;23.85;52.96;97273.22;4462857;32;20572;-80
2022/09/26 08:24:03;;;;;;;15.40;9.60;;;;;;;23.64;54.19;97276.38;4475935;32;20149;-80
2022/09/26 08:26:30;;;;;;;14.15;8.82;;;;;;;23.56;52.92;97271.91;4458465;32;20076;-79
2022/09/26 08:28:58;;;;;;;16.05;9.63;;;;;;;24.23;52.37;97271.63;4473134;32;20089;-80
2022/09/26 08:31:25;;;;;;;15.77;8.77;;;;;;;24.57;52.97;97273.19;4477800;32;20158;-80
2022/09/26 08:33:52;;;;;;;16.37;9.27;;;;;;;25.18;50.79;97267.06;4484768;32;20057;-78
2022/09/26 08:36:19;;;;;;;15.05;7.93;;;;;;;25.37;50.35;97271.06;4473869;32;20076;-78
2022/09/26 08:38:48;;;;;;;16.80;9.05;;;;;;;24.46;49.38;97266.47;4473534;32;20096;-79
2022/09/26 08:41:38;;;;;;;14.93;8.65;;;;;;;23.23;53.47;97268.44;4458526;32;20101;-79
2022/09/26 08:44:45;;;;;;;12.95;7.47;;;;;;;24.11;52.29;97280.87;4472560;32;20491;-80
2022/09/26 08:47:48;;;;;;;13.32;8.07;;;;;;;23.91;51.62;97281.25;4395364;32;20131;-80
2022/09/26 08:50:22;;;;;;;15.02;8.48;;;;;;;23.02;54.59;97275.97;4458661;32;20162;-80
2022/09/26 08:53:00;;;;;;;16.10;8.75;;;;;;;23.36;53.33;97260.88;4459845;32;20100;-80
2022/09/26 08:55:36;;;;;;;16.05;9.27;;;;;;;23.13;54.17;97273.03;4472491;32;20085;-80
2022/09/26 08:58:18;;;;;;;14.98;8.80;;;;;;;23.06;53.60;97279.94;4458863;32;20103;-80
2022/09/26 09:00:47;;;;;;;15.05;8.60;;;;;;;22.97;54.90;97275.66;4472696;32;20088;-82
2022/09/26 09:03:20;;;;;;;14.95;8.02;;;;;;;23.13;55.04;97285.38;4472197;32;20089;-80
2022/09/26 09:05:49;;;;;;;12.20;6.07;;;;;;;22.25;59.02;97277.03;4472200;32;20166;-80
2022/09/26 09:08:22;;;;;;;12.57;5.75;;;;;;;21.98;56.12;97285.88;4457877;32;20077;-79
2022/09/26 09:11:12;;;;;;;12.63;6.30;;;;;;;20.58;61.59;97279.53;4474158;32;20340;-79
2022/09/26 09:13:44;;;;;;;12.40;7.15;;;;;;;21.67;59.36;97284.53;4474181;32;20105;-79
2022/09/26 09:16:34;;;;;;;11.12;5.87;;;;;;;20.73;63.64;97280.69;4471525;32;20584;-79
2022/09/26 09:19:23;;;;;;;13.93;6.18;;;;;;;20.79;63.04;97280.94;4472247;32;20100;-79
2022/09/26 09:22:31;;;;;;;11.52;6.00;;;;;;;20.76;63.46;97260.25;4471720;32;20398;-79
2022/09/26 09:25:21;;;;;;;11.15;5.80;;;;;;;21.46;58.92;97264.84;4471780;32;20097;-80
2022/09/26 09:28:14;;;;;;;12.27;6.25;;;;;;;21.19;60.09;97261.31;4471912;32;20104;-80
2022/09/26 09:30:44;;;;;;;13.88;6.05;;;;;;;22.40;56.84;97268.38;4458187;32;20100;-79
2022/09/26 09:33:27;;;;;;;10.75;5.05;;;;;;;22.69;54.75;97280.31;4457909;32;20101;-80
2022/09/26 09:35:55;;;;;;;12.45;5.57;;;;;;;22.58;56.29;97277.97;4454536;32;20093;-79
2022/09/26 09:38:27;;;;;;;11.95;5.50;;;;;;;23.53;52.44;97279.31;4455209;32;20150;-79
2022/09/26 09:40:59;;;;;;;11.63;5.82;;;;;;;23.27;53.22;97284.72;4456511;32;20082;-79
2022/09/26 09:43:31;;;;;;;10.70;5.60;;;;;;;22.27;55.94;97286.41;4454888;32;20096;-80
2022/09/26 09:46:04;;;;;;;11.07;5.00;;;;;;;22.90;55.03;97278.09;4454974;32;20158;-80
2022/09/26 09:48:32;;;;;;;10.75;4.37;;;;;;;23.25;53.01;97276.16;4456304;32;20172;-80
2022/09/26 09:51:14;;;;;;;9.10;4.47;;;;;;;22.50;54.59;97278.78;4454674;32;20081;-81
2022/09/26 09:54:05;;;;;;;8.95;4.37;;;;;;;22.71;53.44;97280.97;4456397;32;20116;-83
2022/09/26 09:57:07;;;;;;;9.05;4.43;;;;;;;23.21;52.79;97283.56;4454837;32;20134;-80
2022/09/26 09:59:58;;;;;;;8.45;4.20;;;;;;;22.95;53.35;97293.38;4456311;32;20157;-80
2022/09/26 10:02:46;;;;;;;9.30;4.60;;;;;;;24.49;48.60;97298.59;4456177;32;20142;-80
2022/09/26 10:05:24;;;;;;;9.43;4.57;;;;;;;23.87;49.69;97285.22;4455607;32;20086;-81
2022/09/26 10:07:58;;;;;;;12.07;4.37;;;;;;;22.78;52.04;97295.97;4454919;32;20123;-79
2022/09/26 10:10:39;;;;;;;10.30;4.80;;;;;;;22.68;52.13;97295.28;4454700;32;20089;-80
2022/09/26 10:13:09;;;;;;;9.27;4.82;;;;;;;22.87;51.94;97294.22;4456132;32;20183;-79
2022/09/26 10:15:53;;;;;;;8.90;3.95;;;;;;;23.46;50.94;97287.03;4455879;32;20467;-79
2022/09/26 10:18:20;;;;;;;8.32;4.32;;;;;;;23.58;50.50;97283.09;4454378;32;20104;-79
2022/09/26 10:21:01;;;;;;;8.30;3.90;;;;;;;23.58;51.45;97285.75;4456098;32;20104;-80
2022/09/26 10:23:39;;;;;;;10.02;4.30;;;;;;;23.71;50.16;97277.34;4456114;32;20089;-79
2022/09/26 10:26:09;;;;;;;9.07;3.90;;;;;;;22.07;53.88;97277.09;4454278;32;20120;-79
2022/09/26 10:28:46;;;;;;;7.65;3.55;;;;;;;21.86;55.15;97272.19;4455260;32;20112;-78
2022/09/26 10:31:35;;;;;;;7.85;3.70;;;;;;;21.46;56.06;97270.09;4455776;32;20089;-78
2022/09/26 10:34:29;;;;;;;8.48;3.58;;;;;;;20.73;59.44;97263.16;4454961;32;20119;-78
2022/09/26 10:36:56;;;;;;;8.15;3.90;;;;;;;20.87;57.99;97263.66;4468412;32;20101;-78
2022/09/26 10:42:18;;;;;;;8.77;3.72;;;;;;;22.26;54.35;97260.28;4459500;32;20096;-78
2022/09/26 10:44:47;;;;;;;7.85;4.00;;;;;;;23.29;52.56;97253.81;4471377;32;20171;-78
2022/09/26 10:47:21;;;;;;;8.80;3.97;;;;;;;23.95;48.57;97265.97;4470927;32;20152;-78
2022/09/26 10:50:08;;;;;;;8.15;4.00;;;;;;;22.47;52.64;97263.31;4471445;32;20115;-78
2022/09/26 10:52:38;;;;;;;8.40;4.05;;;;;;;23.35;51.40;97269.75;4457318;32;20096;-78
2022/09/26 10:55:14;;;;;;;9.05;4.05;;;;;;;22.32;52.88;97272.78;4471067;32;20115;-78
2022/09/26 10:58:04;;;;;;;7.37;3.50;;;;;;;22.27;51.74;97264.56;4474924;32;20722;-82
2022/09/26 11:00:48;;;;;;;8.05;4.03;;;;;;;23.76;48.28;97263.69;4483821;32;20100;-82
2022/09/26 11:03:19;;;;;;;7.97;3.80;;;;;;;23.79;48.93;97268.59;4468466;32;20102;-82
2022/09/26 11:05:59;;;;;;;6.95;3.62;;;;;;;24.13;49.21;97260.44;4479743;32;20053;-82
2022/09/26 11:08:31;;;;;;;8.85;4.05;;;;;;;24.65;45.94;97279.22;4465042;32;20076;-81
2022/09/26 11:11:00;;;;;;;7.22;3.33;;;;;;;22.04;52.79;97272.94;4481085;32;20073;-82
2022/09/26 11:13:31;;;;;;;8.32;3.83;;;;;;;22.08;53.57;97269.06;4467807;32;20749;-82
2022/09/26 11:16:03;;;;;;;8.27;3.70;;;;;;;22.23;51.76;97262.25;4477113;32;20084;-82
2022/09/26 11:18:48;;;;;;;7.43;3.33;;;;;;;22.79;51.70;97270.47;4471140;32;20168;-85
2022/09/26 11:21:27;;;;;;;6.68;3.37;;;;;;;22.16;51.04;97265.66;4474049;32;20439;-84
2022/09/26 11:24:02;;;;;;;9.20;3.70;;;;;;;21.77;52.59;97270.47;4472269;32;20085;-83
2022/09/26 11:26:56;;;;;;;8.48;4.00;;;;;;;22.36;51.99;97258.34;4444311;32;20569;-82
2022/09/26 11:29:47;;;;;;;7.87;3.90;;;;;;;23.44;49.87;97260.06;4459292;32;20197;-82
2022/09/26 11:32:23;;;;;;;8.88;3.75;;;;;;;22.43;52.88;97257.53;4471449;32;20152;-83
2022/09/26 11:34:53;;;;;;;7.32;3.75;;;;;;;22.79;49.94;97254.72;4470425;32;20108;-83
2022/09/26 11:37:52;;;;;;;7.75;3.53;;;;;;;22.97;49.94;97257.25;4470806;32;20145;-83
2022/09/26 11:40:48;;;;;;;10.05;4.28;;;;;;;23.48;48.80;97255.28;4471899;32;20162;-84
2022/09/26 11:43:45;;;;;;;8.85;3.78;;;;;;;23.19;49.25;97245.25;4474231;32;20144;-83
2022/09/26 11:47:01;;;;;;;8.27;4.05;;;;;;;23.13;50.06;97245.91;4471827;32;20089;-81
2022/09/26 11:49:50;;;;;;;6.75;3.30;;;;;;;23.75;47.42;97241.78;4437269;32;20073;-82
2022/09/26 11:52:20;;;;;;;6.80;3.20;;;;;;;23.98;44.97;97241.91;4457963;32;20108;-83
2022/09/26 11:55:16;;;;;;;7.25;3.30;;;;;;;23.40;46.20;97240.31;4471411;32;20436;-83
2022/09/26 11:57:49;;;;;;;8.63;3.55;;;;;;;24.51;44.20;97233.31;4461114;32;20534;-83
2022/09/26 12:00:26;;;;;;;7.15;3.30;;;;;;;24.24;44.73;97221.41;4471795;32;20085;-83
2022/09/26 12:03:21;;;;;;;7.82;3.85;;;;;;;24.81;44.67;97228.22;4456980;32;20439;-82
2022/09/26 12:05:58;;;;;;;6.07;3.20;;;;;;;24.98;44.71;97229.72;4470974;32;20104;-83
2022/09/26 12:08:36;;;;;;;6.50;3.00;;;;;;;24.48;44.93;97217.03;4457012;32;20085;-82
2022/09/26 12:11:18;;;;;;;7.47;3.47;;;;;;;25.04;44.29;97223.78;4471686;32;20085;-83